createdAt,value
2023-01-19T00:00:25.890Z,2.38
2023-01-19T00:01:25.774Z,2.32
2023-01-19T00:02:25.883Z,2.23
2023-01-19T00:03:25.738Z,2.22
2023-01-19T00:04:25.714Z,2.26
2023-01-19T00:05:25.702Z,2.12
2023-01-19T00:06:25.737Z,2.14
2023-01-19T00:07:25.663Z,2.15
2023-01-19T00:08:25.648Z,2.11
2023-01-19T00:09:25.625Z,2.29
2023-01-19T00:10:25.607Z,2.09
2023-01-19T00:11:25.589Z,2.14
2023-01-19T00:12:25.574Z,2.20
2023-01-19T00:13:25.552Z,2.09
2023-01-19T00:14:25.538Z,2.18
2023-01-19T00:15:25.515Z,2.23
2023-01-19T00:16:25.536Z,2.15
2023-01-19T00:17:25.489Z,2.20
2023-01-19T00:18:25.490Z,2.22
2023-01-19T00:19:25.445Z,2.29
2023-01-19T00:20:25.430Z,2.37
2023-01-19T00:21:25.404Z,2.27
2023-01-19T00:22:25.409Z,2.29
2023-01-19T00:23:25.368Z,2.32
2023-01-19T00:24:25.353Z,2.30
2023-01-19T00:25:25.329Z,2.25
2023-01-19T00:26:25.316Z,2.26
2023-01-19T00:27:25.296Z,2.23
2023-01-19T00:28:25.281Z,2.25
2023-01-19T00:29:25.257Z,2.20
2023-01-19T00:30:25.244Z,2.26
2023-01-19T00:31:25.305Z,2.15
2023-01-19T00:32:25.213Z,2.12
2023-01-19T00:33:25.185Z,2.20
2023-01-19T00:34:25.193Z,2.38
2023-01-19T00:35:25.148Z,2.36
2023-01-19T00:36:25.133Z,2.38
2023-01-19T00:37:25.111Z,2.37
2023-01-19T00:38:25.097Z,2.32
2023-01-19T00:39:25.079Z,2.32
2023-01-19T00:40:25.067Z,2.33
2023-01-19T00:41:25.037Z,2.32
2023-01-19T00:42:25.057Z,2.30
2023-01-19T00:43:25.006Z,2.27
2023-01-19T00:44:25.046Z,2.32
2023-01-19T00:45:25.021Z,2.30
2023-01-19T00:46:24.950Z,2.26
2023-01-19T00:47:24.928Z,2.30
2023-01-19T00:48:24.916Z,2.44
2023-01-19T00:49:24.947Z,2.44
2023-01-19T00:50:24.901Z,2.41
2023-01-19T00:51:24.857Z,2.37
2023-01-19T00:52:24.841Z,2.37
2023-01-19T00:53:24.822Z,2.27
2023-01-19T00:54:26.896Z,2.25
2023-01-19T00:55:24.790Z,2.27
2023-01-19T00:56:24.769Z,2.12
2023-01-19T00:57:24.750Z,2.22
2023-01-19T00:58:24.731Z,2.19
2023-01-19T00:59:24.712Z,2.09
2023-01-19T01:00:24.696Z,2.12
2023-01-19T01:01:45.496Z,2.11
2023-01-19T01:02:24.884Z,2.11
2023-01-19T01:03:24.680Z,2.07
2023-01-19T01:04:24.626Z,2.22
2023-01-19T01:05:24.600Z,2.08
2023-01-19T01:06:24.620Z,2.15
2023-01-19T01:07:24.568Z,1.92
2023-01-19T01:08:24.551Z,2.01
2023-01-19T01:09:24.534Z,2.02
2023-01-19T01:10:24.517Z,2.07
2023-01-19T01:11:24.493Z,2.01
2023-01-19T01:12:24.538Z,1.89
2023-01-19T01:13:26.358Z,1.95
2023-01-19T01:14:24.464Z,1.86
2023-01-19T01:15:24.418Z,1.71
2023-01-19T01:16:24.413Z,1.68
2023-01-19T01:17:24.381Z,1.71
2023-01-19T01:18:24.366Z,1.81
2023-01-19T01:19:24.345Z,2.05
2023-01-19T01:20:24.350Z,1.90
2023-01-19T01:21:24.315Z,1.75
2023-01-19T01:22:24.321Z,1.75
2023-01-19T01:23:24.272Z,1.71
2023-01-19T01:24:24.260Z,1.65
2023-01-19T01:25:24.237Z,1.68
2023-01-19T01:26:26.384Z,1.65
2023-01-19T01:27:24.200Z,1.71
2023-01-19T01:28:24.187Z,1.65
2023-01-19T01:29:24.161Z,1.52
2023-01-19T01:30:24.153Z,1.56
2023-01-19T01:31:24.166Z,1.56
2023-01-19T01:32:24.109Z,1.47
2023-01-19T01:33:40.562Z,1.32
2023-01-19T01:34:24.071Z,1.35
2023-01-19T01:35:24.050Z,1.49
2023-01-19T01:36:24.033Z,1.36
2023-01-19T01:37:24.013Z,1.35
2023-01-19T01:38:24.015Z,1.38
2023-01-19T01:39:23.976Z,1.50
2023-01-19T01:40:23.959Z,1.42
2023-01-19T01:41:25.480Z,1.47
2023-01-19T01:42:23.922Z,1.49
2023-01-19T01:43:23.903Z,1.53
2023-01-19T01:44:23.885Z,1.72
2023-01-19T01:45:23.874Z,1.74
2023-01-19T01:46:23.850Z,1.74
2023-01-19T01:47:23.826Z,1.71
2023-01-19T01:48:23.861Z,1.65
2023-01-19T01:50:23.771Z,1.44
2023-01-19T01:51:23.755Z,1.38
2023-01-19T01:52:23.734Z,1.29
2023-01-19T01:53:23.718Z,1.31
2023-01-19T01:54:23.719Z,1.20
2023-01-19T01:55:23.686Z,1.24
2023-01-19T01:56:23.659Z,1.21
2023-01-19T01:57:23.648Z,1.25
2023-01-19T01:58:23.823Z,1.18
2023-01-19T01:59:23.607Z,1.18
2023-01-19T02:00:23.586Z,1.07
2023-01-19T02:01:23.650Z,1.17
2023-01-19T02:02:23.597Z,1.13
2023-01-19T02:03:23.606Z,1.06
2023-01-19T02:04:23.512Z,1.04
2023-01-19T02:05:23.496Z,0.99
2023-01-19T02:06:23.472Z,1.14
2023-01-19T02:07:23.463Z,1.29
2023-01-19T02:08:23.433Z,1.35
2023-01-19T02:09:23.418Z,1.24
2023-01-19T02:10:23.424Z,1.16
2023-01-19T02:11:23.386Z,1.35
2023-01-19T02:12:23.360Z,1.26
2023-01-19T02:13:23.359Z,1.18
2023-01-19T02:14:23.324Z,1.06
2023-01-19T02:15:23.306Z,0.98
2023-01-19T02:16:23.303Z,0.93
2023-01-19T02:17:23.268Z,0.96
2023-01-19T02:18:23.250Z,0.92
2023-01-19T02:19:23.230Z,0.92
2023-01-19T02:20:23.259Z,0.77
2023-01-19T02:21:23.200Z,0.80
2023-01-19T02:22:23.170Z,0.72
2023-01-19T02:23:23.160Z,0.72
2023-01-19T02:24:23.134Z,0.68
2023-01-19T02:25:23.117Z,0.82
2023-01-19T02:26:23.173Z,0.89
2023-01-19T02:27:23.099Z,0.74
2023-01-19T02:28:23.062Z,0.67
2023-01-19T02:29:23.057Z,0.71
2023-01-19T02:30:23.059Z,0.67
2023-01-19T02:31:23.014Z,0.64
2023-01-19T02:32:22.983Z,0.71
2023-01-19T02:33:22.967Z,0.63
2023-01-19T02:34:22.948Z,0.59
2023-01-19T02:35:22.929Z,0.59
2023-01-19T02:36:22.906Z,0.60
2023-01-19T02:37:22.889Z,0.53
2023-01-19T02:38:22.871Z,0.56
2023-01-19T02:39:22.853Z,0.70
2023-01-19T02:40:22.830Z,0.75
2023-01-19T02:41:22.813Z,0.63
2023-01-19T02:42:22.820Z,0.52
2023-01-19T02:43:22.777Z,0.56
2023-01-19T02:44:22.757Z,0.45
2023-01-19T02:45:22.750Z,0.45
2023-01-19T02:46:22.798Z,0.53
2023-01-19T02:47:22.701Z,0.67
2023-01-19T02:48:22.685Z,0.71
2023-01-19T02:49:22.663Z,0.74
2023-01-19T02:50:22.640Z,0.84
2023-01-19T02:51:22.625Z,0.78
2023-01-19T02:52:22.603Z,0.89
2023-01-19T02:53:22.593Z,0.82
2023-01-19T02:54:22.570Z,0.88
2023-01-19T02:55:22.552Z,0.96
2023-01-19T02:56:22.525Z,0.80
2023-01-19T02:57:22.517Z,0.93
2023-01-19T02:58:22.510Z,0.86
2023-01-19T02:59:22.505Z,0.75
2023-01-19T03:00:22.448Z,0.78
2023-01-19T03:01:22.536Z,0.68
2023-01-19T03:02:22.549Z,0.74
2023-01-19T03:03:22.397Z,0.80
2023-01-19T03:04:22.375Z,0.82
2023-01-19T03:05:22.358Z,0.77
2023-01-19T03:06:22.338Z,0.64
2023-01-19T03:07:22.322Z,0.59
2023-01-19T03:08:22.297Z,0.63
2023-01-19T03:09:22.281Z,0.56
2023-01-19T03:10:22.259Z,0.53
2023-01-19T03:11:22.244Z,0.45
2023-01-19T03:12:22.220Z,0.37
2023-01-19T03:13:22.209Z,0.26
2023-01-19T03:14:22.206Z,0.33
2023-01-19T03:15:22.168Z,0.34
2023-01-19T03:16:22.824Z,0.53
2023-01-19T03:17:22.129Z,0.45
2023-01-19T03:18:22.107Z,0.33
2023-01-19T03:19:22.090Z,0.30
2023-01-19T03:20:22.074Z,0.37
2023-01-19T03:21:22.062Z,0.40
2023-01-19T03:22:22.036Z,0.34
2023-01-19T03:23:22.064Z,0.35
2023-01-19T03:24:22.002Z,0.51
2023-01-19T03:25:21.977Z,0.41
2023-01-19T03:26:21.952Z,0.33
2023-01-19T03:27:21.936Z,0.45
2023-01-19T03:28:21.915Z,0.35
2023-01-19T03:29:21.947Z,0.30
2023-01-19T03:30:21.900Z,0.31
2023-01-19T03:31:21.919Z,0.43
2023-01-19T03:32:21.835Z,0.28
2023-01-19T03:33:21.820Z,0.34
2023-01-19T03:34:21.799Z,0.35
2023-01-19T03:35:21.781Z,0.28
2023-01-19T03:36:21.760Z,0.31
2023-01-19T03:37:21.746Z,0.28
2023-01-19T03:38:21.722Z,0.41
2023-01-19T03:39:21.707Z,0.37
2023-01-19T03:40:21.684Z,0.44
2023-01-19T03:41:21.669Z,0.34
2023-01-19T03:42:21.645Z,0.40
2023-01-19T03:43:21.630Z,0.43
2023-01-19T03:44:21.606Z,0.31
2023-01-19T03:45:21.593Z,0.38
2023-01-19T03:46:21.667Z,0.38
2023-01-19T03:47:21.553Z,0.38
2023-01-19T03:48:21.531Z,0.31
2023-01-19T03:49:21.513Z,0.37
2023-01-19T03:50:21.492Z,0.49
2023-01-19T03:51:21.477Z,0.67
2023-01-19T03:52:21.451Z,0.84
2023-01-19T03:53:21.436Z,0.82
2023-01-19T03:54:21.417Z,0.74
2023-01-19T03:55:21.398Z,0.64
2023-01-19T03:56:21.377Z,0.70
2023-01-19T03:57:21.359Z,0.68
2023-01-19T03:58:21.337Z,0.77
2023-01-19T03:59:21.322Z,0.70
2023-01-19T04:00:21.299Z,0.57
2023-01-19T04:01:21.373Z,0.68
2023-01-19T04:02:21.317Z,0.78
2023-01-19T04:03:21.252Z,0.84
2023-01-19T04:04:21.228Z,0.89
2023-01-19T04:05:21.207Z,0.75
2023-01-19T04:06:21.183Z,0.88
2023-01-19T04:07:21.169Z,0.84
2023-01-19T04:08:21.144Z,0.74
2023-01-19T04:09:21.131Z,0.82
2023-01-19T04:10:21.108Z,0.82
2023-01-19T04:11:21.127Z,0.78
2023-01-19T04:12:21.069Z,0.81
2023-01-19T04:13:21.053Z,0.72
2023-01-19T04:14:21.032Z,0.75
2023-01-19T04:15:21.014Z,0.62
2023-01-19T04:16:21.126Z,0.64
2023-01-19T04:17:20.979Z,0.57
2023-01-19T04:18:20.976Z,0.48
2023-01-19T04:19:20.938Z,0.34
2023-01-19T04:20:20.916Z,0.37
2023-01-19T04:21:20.899Z,0.33
2023-01-19T04:22:20.878Z,0.31
2023-01-19T04:23:20.860Z,0.30
2023-01-19T04:24:20.845Z,0.37
2023-01-19T04:25:20.824Z,0.48
2023-01-19T04:26:20.808Z,0.71
2023-01-19T04:27:20.783Z,0.68
2023-01-19T04:28:20.762Z,0.68
2023-01-19T04:29:20.745Z,0.74
2023-01-19T04:30:20.727Z,0.80
2023-01-19T04:31:20.777Z,0.67
2023-01-19T04:32:20.685Z,0.63
2023-01-19T04:33:20.670Z,0.81
2023-01-19T04:34:20.722Z,0.74
2023-01-19T04:35:20.629Z,0.70
2023-01-19T04:36:20.608Z,0.62
2023-01-19T04:37:20.588Z,0.67
2023-01-19T04:38:20.577Z,0.70
2023-01-19T04:39:20.554Z,0.59
2023-01-19T04:40:20.538Z,0.48
2023-01-19T04:41:20.516Z,0.49
2023-01-19T04:42:20.495Z,0.40
2023-01-19T04:43:20.474Z,0.49
2023-01-19T04:44:20.459Z,0.64
2023-01-19T04:45:20.442Z,0.56
2023-01-19T04:46:20.458Z,0.49
2023-01-19T04:47:20.397Z,0.45
2023-01-19T04:48:20.385Z,0.44
2023-01-19T04:49:20.368Z,0.41
2023-01-19T04:50:20.364Z,0.52
2023-01-19T04:51:20.319Z,0.44
2023-01-19T04:52:20.314Z,0.45
2023-01-19T04:53:20.285Z,0.53
2023-01-19T04:54:20.318Z,0.60
2023-01-19T04:55:20.248Z,0.63
2023-01-19T04:56:20.225Z,0.56
2023-01-19T04:57:20.209Z,0.78
2023-01-19T04:58:20.187Z,0.68
2023-01-19T04:59:20.166Z,0.62
2023-01-19T05:00:20.148Z,0.82
2023-01-19T05:01:20.180Z,0.77
2023-01-19T05:02:20.113Z,0.71
2023-01-19T05:03:20.234Z,0.75
2023-01-19T05:04:20.073Z,0.77
2023-01-19T05:05:20.060Z,0.84
2023-01-19T05:06:20.069Z,0.84
2023-01-19T05:07:20.061Z,0.78
2023-01-19T05:08:20.009Z,0.90
2023-01-19T05:09:19.973Z,1.00
2023-01-19T05:10:19.959Z,0.90
2023-01-19T05:11:19.934Z,0.90
2023-01-19T05:12:19.924Z,0.84
2023-01-19T05:13:19.900Z,0.81
2023-01-19T05:14:19.879Z,1.00
2023-01-19T05:15:19.858Z,1.08
2023-01-19T05:16:19.901Z,1.16
2023-01-19T05:17:19.817Z,1.20
2023-01-19T05:18:19.802Z,1.31
2023-01-19T05:19:19.782Z,1.17
2023-01-19T05:20:19.768Z,1.20
2023-01-19T05:21:19.742Z,1.06
2023-01-19T05:22:19.747Z,1.38
2023-01-19T05:23:19.707Z,1.31
2023-01-19T05:24:19.691Z,1.38
2023-01-19T05:25:19.691Z,1.39
2023-01-19T05:26:19.650Z,1.46
2023-01-19T05:27:19.627Z,1.47
2023-01-19T05:28:19.611Z,1.39
2023-01-19T05:29:19.592Z,1.35
2023-01-19T05:30:19.578Z,1.28
2023-01-19T05:31:19.852Z,1.31
2023-01-19T05:32:19.535Z,1.29
2023-01-19T05:33:19.513Z,1.14
2023-01-19T05:34:19.557Z,1.04
2023-01-19T05:35:27.760Z,1.10
2023-01-19T05:36:19.459Z,0.74
2023-01-19T05:37:19.436Z,0.70
2023-01-19T05:38:29.322Z,0.62
2023-01-19T05:39:19.397Z,0.51
2023-01-19T05:40:19.381Z,0.60
2023-01-19T05:41:19.360Z,0.53
2023-01-19T05:42:19.346Z,0.41
2023-01-19T05:43:19.323Z,0.51
2023-01-19T05:44:19.305Z,0.44
2023-01-19T05:45:19.284Z,0.38
2023-01-19T05:46:19.283Z,0.28
2023-01-19T05:47:19.249Z,0.31
2023-01-19T05:48:19.227Z,0.33
2023-01-19T05:49:19.205Z,0.15
2023-01-19T05:50:19.189Z,0.13
2023-01-19T05:51:19.167Z,0.16
2023-01-19T05:52:19.150Z,0.08
2023-01-19T05:53:19.164Z,-0.01
2023-01-19T05:54:19.167Z,0.04
2023-01-19T05:55:19.096Z,0.04
2023-01-19T05:56:19.075Z,0.12
2023-01-19T05:57:19.054Z,0.07
2023-01-19T05:58:19.038Z,0.12
2023-01-19T05:59:19.013Z,0.05
2023-01-19T06:00:19.003Z,0.07
2023-01-19T06:01:18.997Z,-0.03
2023-01-19T06:02:18.973Z,0.05
2023-01-19T06:03:18.952Z,0.01
2023-01-19T06:04:18.919Z,0.17
2023-01-19T06:05:18.896Z,0.20
2023-01-19T06:06:18.881Z,0.15
2023-01-19T06:07:18.858Z,0.16
2023-01-19T06:08:18.890Z,0.22
2023-01-19T06:09:18.820Z,0.25
2023-01-19T06:10:18.828Z,0.28
2023-01-19T06:11:18.790Z,0.31
2023-01-19T06:12:18.772Z,0.48
2023-01-19T06:13:18.795Z,0.41
2023-01-19T06:14:18.728Z,0.41
2023-01-19T06:15:18.704Z,0.49
2023-01-19T06:16:18.769Z,0.57
2023-01-19T06:17:18.677Z,0.64
2023-01-19T06:18:18.709Z,0.57
2023-01-19T06:19:18.631Z,0.48
2023-01-19T06:20:18.620Z,0.31
2023-01-19T06:21:18.591Z,0.31
2023-01-19T06:22:18.570Z,0.41
2023-01-19T06:23:18.555Z,0.31
2023-01-19T06:24:18.547Z,0.23
2023-01-19T06:25:18.511Z,0.26
2023-01-19T06:26:18.513Z,0.30
2023-01-19T06:27:18.474Z,0.38
2023-01-19T06:28:18.505Z,0.33
2023-01-19T06:29:18.457Z,0.33
2023-01-19T06:30:18.414Z,0.40
2023-01-19T06:31:18.476Z,0.41
2023-01-19T06:32:18.376Z,0.44
2023-01-19T06:33:18.352Z,0.38
2023-01-19T06:34:18.337Z,0.33
2023-01-19T06:35:18.329Z,0.34
2023-01-19T06:36:18.296Z,0.40
2023-01-19T06:37:18.276Z,0.33
2023-01-19T06:38:18.259Z,0.57
2023-01-19T06:39:18.240Z,0.53
2023-01-19T06:40:18.219Z,0.57
2023-01-19T06:41:18.197Z,0.45
2023-01-19T06:42:18.203Z,0.48
2023-01-19T06:43:18.157Z,0.35
2023-01-19T06:44:18.141Z,0.48
2023-01-19T06:45:18.118Z,0.44
2023-01-19T06:46:18.134Z,0.30
2023-01-19T06:47:18.082Z,0.23
2023-01-19T06:48:18.065Z,0.28
2023-01-19T06:49:18.041Z,0.01
2023-01-19T06:50:18.024Z,0.04
2023-01-19T06:51:18.002Z,-0.03
2023-01-19T06:52:17.984Z,-0.12
2023-01-19T06:53:17.965Z,-0.08
2023-01-19T06:54:17.947Z,-0.19
2023-01-19T06:55:17.922Z,-0.14
2023-01-19T06:56:17.911Z,-0.23
2023-01-19T06:57:17.888Z,-0.13
2023-01-19T06:58:17.897Z,-0.17
2023-01-19T06:59:17.849Z,-0.31
2023-01-19T07:00:17.829Z,-0.17
2023-01-19T07:01:17.881Z,-0.30
2023-01-19T07:02:27.359Z,-0.35
2023-01-19T07:03:17.897Z,-0.34
2023-01-19T07:04:17.749Z,-0.27
2023-01-19T07:05:17.726Z,-0.32
2023-01-19T07:06:17.717Z,-0.47
2023-01-19T07:07:17.689Z,-0.41
2023-01-19T07:08:17.689Z,-0.41
2023-01-19T07:09:17.647Z,-0.41
2023-01-19T07:10:17.641Z,-0.45
2023-01-19T07:11:23.173Z,-0.44
2023-01-19T07:12:17.598Z,-0.39
2023-01-19T07:13:17.597Z,-0.21
2023-01-19T07:14:17.594Z,-0.27
2023-01-19T07:15:17.530Z,-0.42
2023-01-19T07:16:17.587Z,-0.49
2023-01-19T07:17:17.499Z,-0.44
2023-01-19T07:18:17.474Z,-0.56
2023-01-19T07:19:17.450Z,-0.56
2023-01-19T07:20:17.441Z,-0.60
2023-01-19T07:21:17.428Z,-0.58
2023-01-19T07:22:17.397Z,-0.44
2023-01-19T07:23:17.372Z,-0.37
2023-01-19T07:24:17.355Z,-0.50
2023-01-19T07:25:17.331Z,-0.47
2023-01-19T07:26:17.315Z,-0.41
2023-01-19T07:27:17.295Z,-0.41
2023-01-19T07:28:17.275Z,-0.50
2023-01-19T07:29:17.259Z,-0.45
2023-01-19T07:30:17.260Z,-0.41
2023-01-19T07:31:17.377Z,-0.31
2023-01-19T07:32:17.247Z,-0.31
2023-01-19T07:33:17.174Z,-0.27
2023-01-19T07:34:17.158Z,-0.03
2023-01-19T07:35:17.136Z,-0.17
2023-01-19T07:36:17.125Z,-0.21
2023-01-19T07:37:17.095Z,-0.32
2023-01-19T07:38:17.080Z,-0.32
2023-01-19T07:39:17.070Z,-0.24
2023-01-19T07:40:17.043Z,-0.38
2023-01-19T07:41:17.019Z,-0.38
2023-01-19T07:42:17.008Z,-0.44
2023-01-19T07:43:17.028Z,-0.49
2023-01-19T07:44:16.960Z,-0.52
2023-01-19T07:45:16.938Z,-0.52
2023-01-19T07:46:16.960Z,-0.53
2023-01-19T07:47:16.898Z,-0.47
2023-01-19T07:48:16.882Z,-0.41
2023-01-19T07:49:16.859Z,-0.42
2023-01-19T07:50:16.842Z,-0.50
2023-01-19T07:51:16.828Z,-0.65
2023-01-19T07:52:16.805Z,-0.50
2023-01-19T07:53:16.783Z,-0.49
2023-01-19T07:54:16.763Z,-0.47
2023-01-19T07:55:16.755Z,-0.45
2023-01-19T07:56:16.735Z,-0.39
2023-01-19T07:57:16.703Z,-0.47
2023-01-19T07:58:16.684Z,-0.53
2023-01-19T07:59:16.661Z,-0.42
2023-01-19T08:00:16.658Z,-0.42
2023-01-19T08:01:16.743Z,-0.45
2023-01-19T08:02:17.460Z,-0.32
2023-01-19T08:03:16.584Z,-0.12
2023-01-19T08:04:16.612Z,-0.19
2023-01-19T08:05:16.544Z,-0.16
2023-01-19T08:06:16.526Z,-0.24
2023-01-19T08:07:16.514Z,-0.23
2023-01-19T08:08:16.503Z,-0.02
2023-01-19T08:09:16.472Z,0.05
2023-01-19T08:10:16.461Z,0.15
2023-01-19T08:11:16.430Z,0.13
2023-01-19T08:12:16.409Z,0.08
2023-01-19T08:13:16.388Z,0.17
2023-01-19T08:14:16.371Z,0.12
2023-01-19T08:15:16.363Z,0.13
2023-01-19T08:16:16.390Z,0.10
2023-01-19T08:17:16.312Z,-0.01
2023-01-19T08:18:16.329Z,0.15
2023-01-19T08:19:16.284Z,0.15
2023-01-19T08:20:16.259Z,0.05
2023-01-19T08:21:16.230Z,-0.03
2023-01-19T08:22:16.217Z,0.07
2023-01-19T08:23:16.191Z,0.01
2023-01-19T08:24:16.209Z,0.10
2023-01-19T08:25:16.149Z,0.20
2023-01-19T08:26:16.136Z,0.26
2023-01-19T08:27:16.124Z,0.35
2023-01-19T08:28:16.123Z,0.37
2023-01-19T08:29:16.131Z,0.35
2023-01-19T08:30:16.058Z,0.60
2023-01-19T08:31:21.089Z,0.72
2023-01-19T08:32:16.299Z,0.68
2023-01-19T08:33:15.997Z,0.64
2023-01-19T08:34:15.999Z,0.67
2023-01-19T08:35:15.958Z,0.78
2023-01-19T08:36:15.943Z,0.86
2023-01-19T08:37:15.919Z,0.82
2023-01-19T08:38:15.902Z,0.95
2023-01-19T08:39:15.881Z,0.82
2023-01-19T08:40:15.863Z,0.99
2023-01-19T08:41:15.843Z,1.10
2023-01-19T08:42:15.830Z,1.28
2023-01-19T08:43:15.809Z,1.13
2023-01-19T08:44:15.787Z,1.08
2023-01-19T08:45:15.764Z,1.10
2023-01-19T08:46:15.762Z,1.02
2023-01-19T08:47:15.771Z,0.99
2023-01-19T08:48:15.719Z,1.20
2023-01-19T08:49:15.700Z,1.16
2023-01-19T08:50:15.714Z,1.14
2023-01-19T08:51:15.676Z,1.24
2023-01-19T08:52:15.633Z,1.14
2023-01-19T08:53:15.665Z,1.14
2023-01-19T08:54:17.084Z,1.18
2023-01-19T08:55:15.576Z,1.21
2023-01-19T08:56:15.556Z,1.02
2023-01-19T08:57:15.548Z,1.02
2023-01-19T08:58:15.517Z,1.07
2023-01-19T08:59:15.506Z,0.99
2023-01-19T09:00:15.478Z,0.95
2023-01-19T09:01:15.582Z,1.11
2023-01-19T09:02:15.542Z,0.95
2023-01-19T09:03:15.478Z,0.96
2023-01-19T09:04:15.417Z,0.92
2023-01-19T09:05:15.385Z,0.95
2023-01-19T09:06:15.402Z,0.96
2023-01-19T09:07:15.346Z,1.10
2023-01-19T09:08:15.324Z,1.07
2023-01-19T09:09:15.310Z,1.24
2023-01-19T09:10:15.288Z,1.25
2023-01-19T09:11:15.271Z,1.20
2023-01-19T09:12:15.248Z,1.26
2023-01-19T09:13:15.244Z,1.26
2023-01-19T09:14:15.211Z,1.34
2023-01-19T09:15:15.205Z,1.31
2023-01-19T09:16:15.243Z,1.34
2023-01-19T09:17:15.164Z,1.29
2023-01-19T09:18:15.137Z,1.47
2023-01-19T09:19:15.126Z,1.54
2023-01-19T09:20:15.095Z,1.57
2023-01-19T09:21:15.126Z,1.53
2023-01-19T09:22:15.094Z,1.65
2023-01-19T09:23:15.044Z,1.68
2023-01-19T09:24:15.019Z,1.75
2023-01-19T09:25:15.003Z,1.82
2023-01-19T09:26:14.986Z,1.92
2023-01-19T09:27:14.971Z,2.00
2023-01-19T09:28:14.945Z,2.05
2023-01-19T09:29:14.929Z,2.19
2023-01-19T09:30:14.920Z,2.29
2023-01-19T09:31:15.035Z,2.25
2023-01-19T09:32:14.872Z,2.55
2023-01-19T09:33:14.871Z,2.68
2023-01-19T09:34:14.840Z,2.68
2023-01-19T09:35:14.818Z,2.81
2023-01-19T09:36:14.796Z,3.12
2023-01-19T09:37:14.779Z,3.01
2023-01-19T09:38:14.886Z,3.31
2023-01-19T09:39:14.747Z,3.23
2023-01-19T09:40:14.727Z,3.30
2023-01-19T09:41:14.706Z,3.20
2023-01-19T09:42:14.684Z,3.25
2023-01-19T09:43:14.720Z,3.42
2023-01-19T09:44:14.648Z,3.49
2023-01-19T09:45:14.715Z,3.64
2023-01-19T09:46:14.653Z,3.68
2023-01-19T09:47:14.596Z,3.63
2023-01-19T09:48:14.576Z,3.62
2023-01-19T09:49:14.559Z,3.71
2023-01-19T09:50:14.538Z,3.67
2023-01-19T09:51:14.524Z,3.67
2023-01-19T09:52:14.501Z,3.60
2023-01-19T09:53:14.497Z,3.59
2023-01-19T09:54:14.512Z,3.54
2023-01-19T09:55:14.452Z,3.59
2023-01-19T09:56:14.437Z,3.52
2023-01-19T09:57:14.415Z,3.49
2023-01-19T09:58:14.397Z,3.63
2023-01-19T09:59:14.378Z,3.56
2023-01-19T10:00:14.356Z,3.64
2023-01-19T10:01:14.406Z,3.72
2023-01-19T10:02:14.329Z,3.72
2023-01-19T10:03:14.393Z,3.82
2023-01-19T10:04:14.284Z,3.84
2023-01-19T10:05:14.272Z,3.86
2023-01-19T10:06:14.251Z,3.96
2023-01-19T10:07:14.238Z,3.93
2023-01-19T10:08:14.211Z,3.90
2023-01-19T10:09:14.198Z,3.95
2023-01-19T10:10:14.273Z,3.82
2023-01-19T10:11:14.164Z,3.86
2023-01-19T10:12:14.139Z,3.93
2023-01-19T10:13:14.137Z,3.92
2023-01-19T10:14:14.104Z,3.93
2023-01-19T10:15:14.098Z,3.88
2023-01-19T10:16:14.113Z,3.82
2023-01-19T10:17:14.056Z,3.81
2023-01-19T10:18:14.033Z,4.06
2023-01-19T10:19:14.025Z,4.06
2023-01-19T10:20:13.998Z,4.07
2023-01-19T10:21:13.983Z,3.98
2023-01-19T10:22:13.961Z,3.92
2023-01-19T10:23:13.961Z,3.89
2023-01-19T10:24:13.928Z,3.93
2023-01-19T10:25:13.911Z,3.90
2023-01-19T10:26:13.938Z,3.92
2023-01-19T10:27:13.874Z,4.08
2023-01-19T10:28:13.874Z,4.16
2023-01-19T10:29:13.840Z,4.13
2023-01-19T10:30:13.852Z,4.16
2023-01-19T10:31:13.947Z,4.04
2023-01-19T10:32:13.823Z,3.93
2023-01-19T10:33:13.803Z,4.00
2023-01-19T10:34:13.749Z,4.07
2023-01-19T10:35:13.736Z,4.11
2023-01-19T10:36:13.715Z,4.11
2023-01-19T10:37:13.762Z,3.98
2023-01-19T10:38:13.676Z,4.08
2023-01-19T10:39:13.708Z,4.06
2023-01-19T10:40:13.655Z,4.10
2023-01-19T10:41:13.640Z,4.20
2023-01-19T10:42:13.630Z,4.10
2023-01-19T10:43:13.633Z,3.98
2023-01-19T10:44:13.617Z,3.92
2023-01-19T10:45:13.563Z,4.13
2023-01-19T10:46:13.598Z,4.18
2023-01-19T10:47:13.524Z,4.26
2023-01-19T10:48:13.508Z,4.28
2023-01-19T10:49:13.489Z,4.16
2023-01-19T10:50:13.464Z,4.32
2023-01-19T10:51:13.489Z,4.24
2023-01-19T10:52:13.478Z,4.43
2023-01-19T10:53:13.415Z,4.34
2023-01-19T10:54:13.434Z,4.34
2023-01-19T10:55:13.381Z,4.39
2023-01-19T10:56:13.365Z,4.54
2023-01-19T10:57:13.349Z,4.46
2023-01-19T10:58:13.365Z,4.57
2023-01-19T10:59:13.314Z,4.69
2023-01-19T11:00:13.290Z,4.79
2023-01-19T11:01:13.387Z,4.88
2023-01-19T11:02:13.503Z,4.84
2023-01-19T11:03:13.293Z,4.86
2023-01-19T11:04:13.226Z,4.86
2023-01-19T11:05:13.207Z,4.86
2023-01-19T11:06:13.186Z,4.75
2023-01-19T11:07:13.173Z,4.83
2023-01-19T11:08:13.152Z,4.80
2023-01-19T11:09:13.139Z,4.71
2023-01-19T11:10:13.117Z,4.94
2023-01-19T11:11:13.104Z,4.87
2023-01-19T11:12:13.082Z,4.93
2023-01-19T11:13:13.076Z,5.01
2023-01-19T11:14:13.071Z,4.96
2023-01-19T11:15:13.035Z,5.04
2023-01-19T11:16:13.035Z,5.06
2023-01-19T11:17:12.999Z,5.17
2023-01-19T11:18:12.994Z,5.12
2023-01-19T11:19:12.966Z,5.17
2023-01-19T11:20:12.947Z,5.32
2023-01-19T11:21:12.931Z,5.38
2023-01-19T11:22:12.916Z,5.40
2023-01-19T11:23:12.898Z,5.41
2023-01-19T11:24:12.875Z,5.47
2023-01-19T11:25:12.911Z,5.44
2023-01-19T11:26:12.844Z,5.44
2023-01-19T11:27:12.828Z,5.51
2023-01-19T11:28:12.808Z,5.48
2023-01-19T11:29:12.794Z,5.52
2023-01-19T11:30:12.809Z,5.56
2023-01-19T11:31:12.859Z,5.65
2023-01-19T11:32:12.739Z,5.75
2023-01-19T11:33:12.737Z,5.65
2023-01-19T11:34:12.705Z,5.75
2023-01-19T11:35:12.691Z,5.69
2023-01-19T11:36:12.672Z,5.63
2023-01-19T11:37:12.657Z,5.65
2023-01-19T11:38:12.649Z,5.67
2023-01-19T11:39:12.628Z,5.59
2023-01-19T11:40:14.395Z,5.58
2023-01-19T11:41:12.591Z,5.48
2023-01-19T11:42:12.571Z,5.47
2023-01-19T11:43:12.562Z,5.60
2023-01-19T11:44:12.539Z,5.51
2023-01-19T11:45:12.557Z,5.55
2023-01-19T11:46:12.526Z,5.41
2023-01-19T11:47:12.492Z,5.49
2023-01-19T11:48:12.468Z,5.55
2023-01-19T11:49:12.457Z,5.48
2023-01-19T11:50:12.455Z,5.42
2023-01-19T11:51:12.425Z,5.45
2023-01-19T11:52:12.400Z,5.59
2023-01-19T11:53:12.389Z,5.66
2023-01-19T11:54:12.462Z,5.65
2023-01-19T11:55:12.367Z,5.60
2023-01-19T11:56:12.335Z,5.66
2023-01-19T11:57:12.327Z,5.77
2023-01-19T11:58:12.307Z,5.78
2023-01-19T11:59:12.291Z,5.74
2023-01-19T12:00:12.267Z,5.67
2023-01-19T12:01:12.303Z,5.77
2023-01-19T12:02:12.299Z,5.63
2023-01-19T12:03:12.233Z,5.41
2023-01-19T12:04:12.201Z,5.22
2023-01-19T12:05:12.224Z,5.35
2023-01-19T12:06:12.171Z,5.38
2023-01-19T12:07:12.160Z,5.41
2023-01-19T12:08:12.134Z,5.30
2023-01-19T12:09:12.121Z,5.30
2023-01-19T12:10:12.100Z,5.32
2023-01-19T12:11:12.085Z,5.37
2023-01-19T12:12:12.066Z,5.47
2023-01-19T12:13:12.053Z,5.56
2023-01-19T12:14:12.032Z,5.58
2023-01-19T12:15:12.021Z,5.44
2023-01-19T12:16:12.026Z,5.41
2023-01-19T12:17:11.986Z,5.38
2023-01-19T12:18:12.012Z,5.24
2023-01-19T12:19:11.954Z,5.24
2023-01-19T12:20:11.939Z,5.42
2023-01-19T12:21:11.923Z,5.44
2023-01-19T12:22:11.904Z,5.63
2023-01-19T12:23:11.892Z,5.70
2023-01-19T12:24:11.896Z,6.02
2023-01-19T12:25:11.852Z,6.17
2023-01-19T12:26:11.830Z,6.16
2023-01-19T12:27:11.816Z,6.17
2023-01-19T12:28:11.806Z,6.25
2023-01-19T12:29:11.784Z,6.21
2023-01-19T12:30:11.813Z,6.27
2023-01-19T12:31:11.842Z,6.24
2023-01-19T12:32:11.729Z,6.27
2023-01-19T12:33:11.719Z,6.28
2023-01-19T12:34:11.738Z,6.35
2023-01-19T12:35:11.684Z,6.48
2023-01-19T12:36:11.713Z,6.39
2023-01-19T12:37:13.677Z,6.25
2023-01-19T12:38:11.631Z,6.33
2023-01-19T12:39:11.619Z,6.25
2023-01-19T12:40:11.599Z,6.14
2023-01-19T12:41:11.586Z,6.21
2023-01-19T12:42:11.564Z,6.16
2023-01-19T12:43:11.551Z,6.05
2023-01-19T12:44:11.531Z,5.73
2023-01-19T12:45:11.522Z,5.70
2023-01-19T12:46:11.546Z,5.65
2023-01-19T12:47:11.493Z,5.67
2023-01-19T12:48:11.524Z,5.60
2023-01-19T12:49:11.451Z,5.55
2023-01-19T12:50:11.472Z,5.60
2023-01-19T12:51:11.420Z,5.56
2023-01-19T12:52:11.403Z,5.55
2023-01-19T12:53:11.388Z,5.44
2023-01-19T12:54:11.369Z,5.49
2023-01-19T12:55:11.360Z,5.41
2023-01-19T12:56:11.334Z,5.44
2023-01-19T12:57:11.320Z,5.40
2023-01-19T12:58:11.300Z,5.40
2023-01-19T12:59:11.289Z,5.41
2023-01-19T13:00:11.267Z,5.55
2023-01-19T13:01:11.353Z,5.58
2023-01-19T13:02:11.296Z,5.65
2023-01-19T13:03:11.221Z,5.77
2023-01-19T13:04:11.199Z,5.74
2023-01-19T13:05:11.191Z,5.70
2023-01-19T13:06:11.194Z,5.85
2023-01-19T13:07:11.153Z,5.96
2023-01-19T13:08:11.133Z,5.93
2023-01-19T13:09:11.121Z,5.98
2023-01-19T13:10:11.106Z,5.99
2023-01-19T13:11:11.118Z,5.90
2023-01-19T13:12:11.078Z,5.96
2023-01-19T13:13:11.053Z,5.93
2023-01-19T13:14:11.040Z,5.90
2023-01-19T13:15:11.030Z,5.93
2023-01-19T13:16:11.039Z,5.81